createdAt,value
2019-01-06T00:00:05.330Z,4.23
2019-01-06T00:02:37.891Z,3.67
2019-01-06T00:05:25.981Z,4.13
2019-01-06T00:07:55.872Z,4.30
2019-01-06T00:10:25.829Z,3.83
2019-01-06T00:12:58.686Z,3.53
2019-01-06T00:15:28.637Z,4.20
2019-01-06T00:18:14.793Z,3.77
2019-01-06T00:21:00.978Z,3.33
2019-01-06T00:23:47.133Z,3.30
2019-01-06T00:26:23.261Z,3.10
2019-01-06T00:28:53.422Z,3.33
2019-01-06T00:31:40.006Z,3.47
2019-01-06T00:34:26.011Z,3.27
2019-01-06T00:36:58.686Z,2.70
2019-01-06T00:39:31.634Z,3.23
2019-01-06T00:42:10.296Z,3.23
2019-01-06T00:44:52.279Z,3.30
2019-01-06T00:47:30.993Z,3.47
2019-01-06T00:50:12.987Z,2.83
2019-01-06T00:53:00.796Z,2.47
2019-01-06T00:55:33.639Z,2.60
2019-01-06T00:58:18.420Z,3.43
2019-01-06T01:00:57.146Z,2.70
2019-01-06T01:03:32.771Z,2.60
2019-01-06T01:06:05.360Z,2.53
2019-01-06T01:08:51.204Z,2.37
2019-01-06T01:11:33.275Z,2.60
2019-01-06T01:14:05.906Z,2.90
2019-01-06T01:16:41.844Z,3.03
2019-01-06T01:19:11.758Z,3.43
2019-01-06T01:21:44.311Z,2.90
2019-01-06T01:24:19.977Z,3.20
2019-01-06T01:27:06.449Z,3.00
2019-01-06T01:29:45.496Z,3.30
2019-01-06T01:32:31.900Z,2.97
2019-01-06T01:35:11.225Z,2.60
2019-01-06T01:37:50.333Z,2.57
2019-01-06T01:40:32.281Z,2.97
2019-01-06T01:43:07.856Z,2.40
2019-01-06T01:45:53.948Z,2.47
2019-01-06T01:48:27.140Z,1.97
2019-01-06T01:51:14.906Z,1.83
2019-01-06T01:53:48.056Z,1.60
2019-01-06T01:56:29.964Z,1.93
2019-01-06T01:59:02.816Z,1.97
2019-01-06T02:01:44.912Z,1.90
2019-01-06T02:04:14.891Z,1.47
2019-01-06T02:06:45.051Z,1.20
2019-01-06T02:09:29.867Z,1.60
2019-01-06T02:12:08.692Z,1.63
2019-01-06T02:14:54.912Z,1.40
2019-01-06T02:17:27.502Z,1.50
2019-01-06T02:20:12.546Z,1.60
2019-01-06T02:22:51.146Z,1.53
2019-01-06T02:25:27.096Z,1.50
2019-01-06T02:28:05.820Z,1.50
2019-01-06T02:30:41.477Z,1.60
2019-01-06T02:33:20.647Z,1.83
2019-01-06T02:36:06.904Z,1.47
2019-01-06T02:38:36.787Z,1.50
2019-01-06T02:41:12.405Z,1.60
2019-01-06T02:43:42.285Z,1.60
2019-01-06T02:46:28.443Z,1.70
2019-01-06T02:49:14.587Z,1.40
2019-01-06T02:51:53.545Z,1.20
2019-01-06T02:54:26.340Z,1.30
2019-01-06T02:56:58.960Z,1.50
2019-01-06T02:59:43.642Z,1.40
2019-01-06T03:02:23.556Z,1.30
2019-01-06T03:05:11.307Z,1.43
2019-01-06T03:07:41.212Z,1.63
2019-01-06T03:10:27.603Z,2.10
2019-01-06T03:13:03.521Z,1.40
2019-01-06T03:15:51.528Z,1.50
2019-01-06T03:18:21.423Z,1.60
2019-01-06T03:21:07.487Z,1.50
2019-01-06T03:23:43.404Z,1.23
2019-01-06T03:26:13.592Z,1.43
2019-01-06T03:28:49.204Z,1.30
2019-01-06T03:31:30.909Z,1.30
2019-01-06T03:34:00.884Z,1.27
2019-01-06T03:36:36.788Z,1.50
2019-01-06T03:39:24.029Z,1.47
2019-01-06T03:42:11.893Z,1.27
2019-01-06T03:44:59.674Z,1.40
2019-01-06T03:47:29.571Z,1.30
2019-01-06T03:50:02.253Z,1.20
2019-01-06T03:52:47.024Z,1.60
2019-01-06T03:55:32.952Z,1.40
2019-01-06T03:58:02.861Z,1.40
2019-01-06T04:00:48.715Z,1.37
2019-01-06T04:03:18.614Z,1.30
2019-01-06T04:05:57.284Z,1.50
2019-01-06T04:08:29.947Z,1.47
2019-01-06T04:11:14.660Z,1.60
2019-01-06T04:13:46.538Z,1.57
2019-01-06T04:16:32.781Z,1.67
2019-01-06T04:19:19.020Z,2.03
2019-01-06T04:21:54.656Z,1.83
2019-01-06T04:24:24.580Z,2.20
2019-01-06T04:27:10.810Z,2.27
2019-01-06T04:29:46.357Z,2.33
2019-01-06T04:32:34.485Z,2.40
2019-01-06T04:35:20.504Z,1.90
2019-01-06T04:38:08.548Z,2.30
2019-01-06T04:40:53.199Z,2.20
2019-01-06T04:43:23.111Z,1.93
2019-01-06T04:46:10.871Z,2.13
2019-01-06T04:48:49.755Z,1.90
2019-01-06T04:51:22.600Z,2.20
2019-01-06T04:53:58.253Z,2.07
2019-01-06T04:56:28.151Z,1.90
2019-01-06T04:59:01.052Z,2.40
2019-01-06T05:01:46.980Z,2.10
2019-01-06T05:04:35.015Z,2.07
2019-01-06T05:07:07.631Z,2.30
2019-01-06T05:09:37.535Z,2.30
2019-01-06T05:12:07.735Z,2.40
2019-01-06T05:14:40.430Z,2.30
2019-01-06T05:17:25.202Z,2.10
2019-01-06T05:19:57.801Z,2.47
2019-01-06T05:22:45.831Z,2.50
2019-01-06T05:25:15.787Z,2.50
2019-01-06T05:28:03.576Z,2.53
2019-01-06T05:30:48.088Z,2.57
2019-01-06T05:33:20.908Z,2.60
2019-01-06T05:35:56.524Z,2.60
2019-01-06T05:38:42.701Z,2.70
2019-01-06T05:41:18.564Z,2.97
2019-01-06T05:43:54.149Z,2.80
2019-01-06T05:46:40.055Z,3.13
2019-01-06T05:49:26.183Z,3.00
2019-01-06T05:51:56.145Z,2.90
2019-01-06T05:54:32.134Z,2.93
2019-01-06T05:57:13.925Z,3.57
2019-01-06T05:59:43.829Z,3.60
2019-01-06T06:02:13.710Z,3.80
2019-01-06T06:04:59.963Z,3.33
2019-01-06T06:07:32.636Z,3.50
2019-01-06T06:10:08.707Z,3.53
2019-01-06T06:12:47.684Z,3.30
2019-01-06T06:15:32.709Z,3.20
2019-01-06T06:18:20.703Z,3.70
2019-01-06T06:21:05.722Z,3.30
2019-01-06T06:23:35.611Z,3.50
2019-01-06T06:26:21.515Z,3.40
2019-01-06T06:28:51.423Z,3.23
2019-01-06T06:31:21.329Z,3.00
2019-01-06T06:34:07.218Z,3.37
2019-01-06T06:36:40.290Z,3.40
2019-01-06T06:39:16.259Z,3.00
2019-01-06T06:42:02.415Z,2.93
2019-01-06T06:44:32.300Z,2.60
2019-01-06T06:47:11.344Z,3.07
2019-01-06T06:49:57.333Z,3.23
2019-01-06T06:52:36.074Z,3.30
2019-01-06T06:55:12.004Z,2.93
2019-01-06T06:58:24.441Z,3.07
2019-01-06T07:01:09.456Z,2.97
2019-01-06T07:03:42.632Z,2.77
2019-01-06T07:06:12.512Z,2.80
2019-01-06T07:08:42.422Z,2.90
2019-01-06T07:11:18.106Z,2.60
2019-01-06T07:13:48.012Z,2.30
2019-01-06T07:16:57.033Z,2.80
2019-01-06T07:19:26.969Z,2.40
2019-01-06T07:22:08.731Z,2.60
2019-01-06T07:24:41.607Z,2.47
2019-01-06T07:27:11.494Z,2.83
2019-01-06T07:29:41.414Z,2.27
2019-01-06T07:32:28.863Z,2.40
2019-01-06T07:34:58.762Z,2.30
2019-01-06T07:37:34.731Z,2.47
2019-01-06T07:40:16.464Z,2.00
2019-01-06T07:42:55.206Z,2.10
2019-01-06T07:45:40.649Z,2.10
2019-01-06T07:48:26.566Z,2.30
2019-01-06T07:51:12.692Z,2.10
2019-01-06T07:53:45.420Z,2.80
2019-01-06T07:56:15.324Z,2.10
2019-01-06T07:58:45.239Z,2.20
2019-01-06T08:01:31.279Z,2.33
2019-01-06T08:04:17.516Z,2.07
2019-01-06T08:06:47.412Z,2.07
2019-01-06T08:09:23.078Z,2.00
2019-01-06T08:12:04.816Z,2.10
2019-01-06T08:14:40.518Z,2.10
2019-01-06T08:17:10.505Z,2.03
2019-01-06T08:19:56.456Z,2.30
2019-01-06T08:22:42.384Z,2.43
2019-01-06T08:25:18.383Z,1.93
2019-01-06T08:27:48.616Z,2.00
2019-01-06T08:30:24.220Z,2.00
2019-01-06T08:33:03.384Z,2.10
2019-01-06T08:35:33.346Z,1.90
2019-01-06T08:38:08.966Z,1.70
2019-01-06T08:40:39.148Z,1.90
2019-01-06T08:43:09.042Z,1.83
2019-01-06T08:45:55.148Z,2.10
2019-01-06T08:48:31.059Z,1.87
2019-01-06T08:51:01.248Z,2.17
2019-01-06T08:53:33.852Z,1.80
2019-01-06T08:56:19.848Z,1.90
2019-01-06T08:59:05.896Z,2.00
2019-01-06T09:01:44.685Z,1.90
2019-01-06T09:04:26.467Z,2.50
2019-01-06T09:07:02.031Z,2.80
2019-01-06T09:09:49.743Z,2.40
2019-01-06T09:12:42.787Z,2.50
2019-01-06T09:15:07.330Z,1.80
2019-01-06T09:17:53.584Z,2.30
2019-01-06T09:20:39.783Z,2.00
2019-01-06T09:23:24.511Z,2.27
2019-01-06T09:26:00.585Z,2.03
2019-01-06T09:28:46.888Z,2.07
2019-01-06T09:31:28.642Z,2.23
2019-01-06T09:34:16.987Z,2.60
2019-01-06T09:36:58.548Z,2.47
2019-01-06T09:39:43.305Z,2.60
2019-01-06T09:42:13.473Z,2.80
2019-01-06T09:45:01.210Z,3.10
2019-01-06T09:47:43.230Z,2.50
2019-01-06T09:50:18.821Z,2.23
2019-01-06T09:52:51.401Z,2.40
2019-01-06T09:55:29.903Z,1.97
2019-01-06T09:57:59.800Z,2.90
2019-01-06T10:00:41.606Z,2.43
2019-01-06T10:03:29.679Z,2.70
2019-01-06T10:06:05.924Z,2.33
2019-01-06T10:08:35.816Z,2.17
2019-01-06T10:11:08.699Z,2.40
2019-01-06T10:13:54.910Z,2.13
2019-01-06T10:16:33.969Z,2.10
2019-01-06T10:19:09.679Z,2.03
2019-01-06T10:21:54.333Z,2.00
2019-01-06T10:24:40.240Z,2.37
2019-01-06T10:27:18.961Z,2.40
2019-01-06T10:30:03.915Z,1.90
2019-01-06T10:32:50.073Z,2.17
2019-01-06T10:35:19.965Z,1.87
2019-01-06T10:37:52.579Z,2.17
2019-01-06T10:40:38.825Z,2.67
2019-01-06T10:43:26.871Z,2.10
2019-01-06T10:45:56.751Z,2.17
2019-01-06T10:48:41.624Z,2.03
2019-01-06T10:51:20.266Z,1.90
2019-01-06T10:54:06.188Z,2.00
2019-01-06T10:56:41.539Z,1.70
2019-01-06T10:59:11.819Z,1.60
2019-01-06T11:01:58.039Z,1.80
2019-01-06T11:04:39.974Z,1.80
2019-01-06T11:07:18.749Z,1.70
2019-01-06T11:09:51.393Z,1.60
2019-01-06T11:12:37.312Z,2.10
2019-01-06T11:15:10.637Z,2.10
2019-01-06T11:17:56.496Z,2.43
2019-01-06T11:20:26.513Z,2.27
2019-01-06T11:23:11.183Z,1.83
2019-01-06T11:25:44.067Z,1.90
2019-01-06T11:28:30.279Z,1.70
2019-01-06T11:31:18.107Z,1.43
2019-01-06T11:33:53.602Z,1.60
2019-01-06T11:36:23.514Z,1.60
2019-01-06T11:39:00.713Z,1.90
2019-01-06T11:41:36.825Z,1.70
2019-01-06T11:44:06.775Z,2.17
2019-01-06T11:46:45.374Z,1.80
2019-01-06T11:49:31.647Z,2.00
2019-01-06T11:52:01.542Z,1.87
2019-01-06T11:54:47.762Z,2.50
2019-01-06T11:57:17.878Z,2.10
2019-01-06T11:59:47.856Z,2.13
2019-01-06T12:02:39.199Z,2.20
2019-01-06T12:05:07.498Z,2.03
2019-01-06T12:07:37.668Z,2.27
2019-01-06T12:10:14.544Z,2.20
2019-01-06T12:12:44.459Z,2.20
2019-01-06T12:15:20.124Z,2.17
2019-01-06T12:18:01.699Z,2.10
2019-01-06T12:20:43.492Z,2.10
2019-01-06T12:23:28.304Z,2.27
2019-01-06T12:26:14.339Z,2.42
2019-01-06T12:28:44.560Z,2.43
2019-01-06T12:31:14.799Z,2.30
2019-01-06T12:33:53.720Z,2.63
2019-01-06T12:36:32.796Z,2.73
2019-01-06T12:39:12.123Z,1.90
2019-01-06T12:41:45.054Z,2.20
2019-01-06T12:44:21.280Z,2.00
2019-01-06T12:46:57.430Z,2.00
2019-01-06T12:49:45.486Z,2.10
2019-01-06T12:52:20.883Z,2.07
2019-01-06T12:54:53.663Z,2.03
2019-01-06T12:57:29.448Z,2.30
2019-01-06T13:00:17.319Z,2.07
2019-01-06T13:02:56.331Z,2.40
2019-01-06T13:05:42.615Z,2.60
2019-01-06T13:08:12.893Z,2.00
2019-01-06T13:10:42.847Z,1.90
2019-01-06T13:13:15.564Z,2.10
2019-01-06T13:16:00.314Z,2.20
2019-01-06T13:18:32.780Z,1.63
2019-01-06T13:21:02.669Z,1.90
2019-01-06T13:23:41.362Z,2.73
2019-01-06T13:26:17.298Z,2.20
2019-01-06T13:29:06.243Z,2.60
2019-01-06T13:31:36.134Z,2.30
2019-01-06T13:34:06.022Z,2.17
2019-01-06T13:36:54.043Z,3.40
2019-01-06T13:39:23.990Z,2.63
2019-01-06T13:41:59.649Z,2.40
2019-01-06T13:44:47.467Z,2.27
2019-01-06T13:47:17.359Z,2.43
2019-01-06T13:49:49.983Z,2.80
2019-01-06T13:52:37.804Z,2.40
2019-01-06T13:55:16.751Z,3.13
2019-01-06T13:57:46.673Z,2.73
2019-01-06T14:00:28.435Z,2.67
2019-01-06T14:03:10.422Z,2.20
2019-01-06T14:05:40.320Z,2.23
2019-01-06T14:08:26.346Z,2.07
2019-01-06T14:10:56.535Z,2.37
2019-01-06T14:13:38.380Z,2.37
2019-01-06T14:16:24.260Z,2.20
2019-01-06T14:18:54.179Z,2.07
2019-01-06T14:21:24.069Z,2.00
2019-01-06T14:24:10.239Z,1.83
2019-01-06T14:26:46.408Z,2.10
2019-01-06T14:29:22.305Z,2.00
2019-01-06T14:32:10.545Z,1.90
2019-01-06T14:34:49.656Z,1.80
2019-01-06T14:37:34.645Z,2.07
2019-01-06T14:40:19.338Z,1.70
2019-01-06T14:43:05.249Z,1.73
2019-01-06T14:45:40.876Z,2.13
2019-01-06T14:48:16.744Z,1.90
2019-01-06T14:51:02.691Z,1.80
2019-01-06T14:53:44.561Z,1.70
2019-01-06T14:56:32.333Z,1.83
2019-01-06T14:59:18.810Z,1.90
2019-01-06T15:01:48.818Z,2.30
2019-01-06T15:04:30.989Z,1.70
2019-01-06T15:07:03.903Z,1.97
2019-01-06T15:09:34.166Z,2.17
2019-01-06T15:12:09.924Z,3.00
2019-01-06T15:14:39.954Z,3.40
2019-01-06T15:17:24.723Z,3.30
2019-01-06T15:19:54.634Z,3.57
2019-01-06T15:22:24.521Z,3.30
2019-01-06T15:25:00.373Z,3.27
2019-01-06T15:27:30.520Z,3.60
2019-01-06T15:30:06.152Z,3.83
2019-01-06T15:32:38.744Z,3.60
2019-01-06T15:35:14.462Z,3.33
2019-01-06T15:37:44.341Z,3.57
2019-01-06T15:40:30.283Z,3.23
2019-01-06T15:43:16.463Z,3.13
2019-01-06T15:46:02.631Z,3.17
2019-01-06T15:48:38.706Z,3.33
2019-01-06T15:51:11.704Z,4.20
2019-01-06T15:53:44.333Z,3.47
2019-01-06T15:56:14.235Z,3.27
2019-01-06T15:58:44.120Z,3.30
2019-01-06T16:01:30.059Z,3.60
2019-01-06T16:04:18.237Z,3.57
2019-01-06T16:07:00.388Z,2.90
2019-01-06T16:09:36.070Z,3.20
2019-01-06T16:12:08.825Z,3.60
2019-01-06T16:14:41.688Z,3.87
2019-01-06T16:17:29.511Z,3.47
2019-01-06T16:20:15.643Z,3.60
2019-01-06T16:22:45.567Z,4.10
2019-01-06T16:25:24.427Z,4.63
2019-01-06T16:28:12.219Z,4.37
2019-01-06T16:30:44.671Z,4.70
2019-01-06T16:33:23.044Z,4.57
2019-01-06T16:35:52.963Z,4.37
2019-01-06T16:38:38.034Z,4.33
2019-01-06T16:41:22.743Z,4.07
2019-01-06T16:44:08.931Z,4.60
2019-01-06T16:46:41.566Z,3.73
2019-01-06T16:49:14.346Z,4.27
2019-01-06T16:51:55.989Z,3.70
2019-01-06T16:54:41.893Z,3.60
2019-01-06T16:57:17.770Z,4.03
2019-01-06T16:59:50.709Z,3.80
2019-01-06T17:02:20.637Z,3.83
2019-01-06T17:04:50.512Z,4.20
2019-01-06T17:07:29.492Z,4.03
2019-01-06T17:10:15.384Z,3.87
2019-01-06T17:13:01.532Z,4.37
2019-01-06T17:15:47.206Z,4.30
2019-01-06T17:18:20.143Z,4.83
2019-01-06T17:20:58.895Z,5.70
2019-01-06T17:23:44.992Z,5.40
2019-01-06T17:26:30.910Z,5.30
2019-01-06T17:29:17.051Z,4.50
2019-01-06T17:31:49.703Z,4.33
2019-01-06T17:34:19.845Z,5.27
2019-01-06T17:37:06.073Z,5.47
2019-01-06T17:39:39.157Z,5.53
2019-01-06T17:42:20.898Z,5.80
2019-01-06T17:45:03.117Z,6.80
2019-01-06T17:47:35.679Z,5.27
2019-01-06T17:50:24.503Z,5.30
2019-01-06T17:53:12.343Z,6.03
2019-01-06T17:55:42.257Z,6.10
2019-01-06T17:58:28.193Z,5.60
2019-01-06T18:01:00.893Z,5.10
2019-01-06T18:03:31.080Z,4.80
2019-01-06T18:06:06.941Z,5.73
2019-01-06T18:08:42.859Z,7.13
2019-01-06T18:11:28.970Z,6.53
2019-01-06T18:14:15.052Z,7.23
2019-01-06T18:16:57.064Z,9.40
2019-01-06T18:19:26.959Z,10.23
2019-01-06T18:22:13.199Z,8.17
2019-01-06T18:24:51.836Z,7.63
2019-01-06T18:27:38.049Z,8.73
2019-01-06T18:30:26.648Z,7.00
2019-01-06T18:32:59.593Z,7.00
2019-01-06T18:35:45.790Z,7.47
2019-01-06T18:38:15.705Z,7.97
2019-01-06T18:41:01.836Z,6.50
2019-01-06T18:43:48.155Z,8.73
2019-01-06T18:46:18.038Z,12.00
2019-01-06T18:49:02.758Z,9.67
2019-01-06T18:51:35.052Z,9.07
2019-01-06T18:54:21.096Z,9.70
2019-01-06T18:57:07.308Z,9.60
2019-01-06T18:59:46.275Z,8.00
2019-01-06T19:02:22.162Z,7.23
2019-01-06T19:05:08.383Z,7.40
2019-01-06T19:07:38.528Z,7.80
2019-01-06T19:10:08.442Z,8.07
2019-01-06T19:12:38.348Z,9.00
2019-01-06T19:15:17.376Z,8.93
2019-01-06T19:17:50.350Z,7.73
2019-01-06T19:20:38.383Z,8.53
2019-01-06T19:23:08.347Z,8.10
2019-01-06T19:25:41.164Z,8.70
2019-01-06T19:28:27.236Z,7.70
2019-01-06T19:30:57.200Z,8.50
2019-01-06T19:33:33.431Z,8.50
2019-01-06T19:36:19.340Z,8.83
2019-01-06T19:39:05.500Z,9.73
2019-01-06T19:41:51.648Z,8.93
2019-01-06T19:44:37.881Z,9.03
2019-01-06T19:47:19.623Z,8.57
2019-01-06T19:49:58.705Z,8.50
2019-01-06T19:52:31.554Z,8.40
2019-01-06T19:55:04.456Z,8.80
2019-01-06T19:57:48.983Z,8.27
2019-01-06T20:00:24.739Z,10.23
2019-01-06T20:03:10.698Z,10.53
2019-01-06T20:05:43.624Z,9.67
2019-01-06T20:08:31.443Z,10.23
2019-01-06T20:11:07.090Z,9.90
2019-01-06T20:13:45.976Z,10.23
2019-01-06T20:16:30.939Z,9.47
2019-01-06T20:19:07.097Z,9.20
2019-01-06T20:21:43.027Z,9.57
2019-01-06T20:24:28.951Z,9.90
2019-01-06T20:27:15.052Z,8.47
2019-01-06T20:29:45.236Z,9.07
2019-01-06T20:32:31.553Z,9.40
2019-01-06T20:35:13.260Z,9.20
2019-01-06T20:37:43.425Z,8.60
2019-01-06T20:40:13.328Z,8.33
2019-01-06T20:42:52.001Z,8.83
2019-01-06T20:45:21.943Z,9.07
2019-01-06T20:47:57.692Z,9.60
2019-01-06T20:50:27.613Z,9.47
2019-01-06T20:52:57.512Z,9.57
2019-01-06T20:55:43.745Z,9.40
2019-01-06T20:58:16.743Z,10.07
2019-01-06T21:01:02.935Z,10.07
2019-01-06T21:03:33.152Z,10.80
2019-01-06T21:06:18.225Z,10.13
2019-01-06T21:09:00.166Z,10.17
2019-01-06T21:11:32.742Z,10.63
2019-01-06T21:14:05.329Z,10.23
2019-01-06T21:16:35.237Z,10.30
2019-01-06T21:19:05.127Z,10.70
2019-01-06T21:21:41.284Z,10.93
2019-01-06T21:24:19.884Z,12.00
2019-01-06T21:27:06.165Z,11.00
2019-01-06T21:29:52.096Z,10.07
2019-01-06T21:32:24.967Z,9.93
2019-01-06T21:35:10.809Z,10.60
2019-01-06T21:37:43.691Z,10.57
2019-01-06T21:40:16.571Z,11.03
2019-01-06T21:43:01.403Z,10.67
2019-01-06T21:45:33.847Z,11.23
2019-01-06T21:48:12.588Z,10.60
2019-01-06T21:50:42.486Z,11.13
2019-01-06T21:53:12.738Z,10.63
2019-01-06T21:55:54.666Z,10.27
2019-01-06T21:58:27.567Z,10.13
2019-01-06T22:01:00.152Z,10.23
2019-01-06T22:03:30.179Z,10.93
2019-01-06T22:06:12.003Z,10.33
2019-01-06T22:08:57.883Z,11.87
2019-01-06T22:11:44.106Z,12.80
2019-01-06T22:14:14.074Z,11.47
2019-01-06T22:17:00.386Z,11.27
2019-01-06T22:19:39.474Z,10.20
2019-01-06T22:22:26.080Z,11.40
2019-01-06T22:24:56.167Z,9.93
2019-01-06T22:27:37.826Z,11.53
2019-01-06T22:30:24.257Z,10.63
2019-01-06T22:33:02.908Z,10.60
2019-01-06T22:35:48.837Z,10.63
2019-01-06T22:38:24.719Z,10.17
2019-01-06T22:40:54.615Z,11.10
2019-01-06T22:43:27.478Z,11.27
2019-01-06T22:46:15.264Z,12.23
2019-01-06T22:48:45.239Z,12.13
2019-01-06T22:51:20.684Z,11.47
2019-01-06T22:53:59.742Z,12.23
2019-01-06T22:56:46.083Z,11.53
2019-01-06T22:59:25.055Z,12.03
2019-01-06T23:02:00.896Z,11.87
2019-01-06T23:04:51.787Z,11.80
2019-01-06T23:07:38.193Z,12.17
2019-01-06T23:10:08.176Z,12.73
2019-01-06T23:12:38.099Z,11.93
2019-01-06T23:15:24.243Z,12.50
2019-01-06T23:17:57.179Z,12.00
2019-01-06T23:20:33.168Z,12.03
2019-01-06T23:23:03.394Z,15.57
2019-01-06T23:25:42.220Z,13.43
2019-01-06T23:28:28.403Z,12.60
2019-01-06T23:30:58.459Z,12.73
2019-01-06T23:33:28.377Z,13.03
2019-01-06T23:36:03.955Z,12.53
2019-01-06T23:38:50.119Z,12.20
2019-01-06T23:41:20.338Z,11.60
2019-01-06T23:43:50.251Z,11.00
2019-01-06T23:46:31.860Z,11.47
2019-01-06T23:49:07.531Z,11.73
2019-01-06T23:51:40.130Z,11.00
2019-01-06T23:54:28.158Z,11.40
2019-01-06T23:57:04.084Z,11.40
2019-01-06T23:59:43.076Z,11.07
